Aviation Digital Data Service (ADDS)

Output produced by METARs form (1601 UTC 23 January 2019)
found at http://www.aviationweather.gov/metar/data/
 
METAR text: MMUN 231546Z 12020KT 6SM SCT010 BKN070 BKN300 27/23 A3002 RMK 8/178 HZY
Conditions at: MMUN (CANCUN , MX) observed 1546 UTC 23 January 2019
Temperature: 27.0°C (81°F)
Dewpoint: 23.0°C (73°F) [RH = 79%]
Pressure (altimeter): 30.02 inches Hg (1016.7 mb)
Winds: from the ESE (120 degrees) at 23 MPH (20 knots; 10.3 m/s)
Visibility: 6 miles (10 km)
Ceiling: 7000 feet AGL
Clouds: scattered clouds at 1000 feet AGL
broken clouds at 7000 feet AGL
broken clouds at 30000 feet AGL
Weather: no significant weather observed at this time

METAR text: MMUN 231447Z 13014KT 6SM SCT010 BKN070 OVC300 25/25 A3002 RMK SLP168 52012 990 8/777 HZY
Conditions at: MMUN (CANCUN , MX) observed 1447 UTC 23 January 2019
Temperature: 25.0°C (77°F)
Dewpoint: 25.0°C (77°F) [RH = 100%]
Pressure (altimeter): 30.02 inches Hg (1016.7 mb)
[Sea-level pressure: 1016.8 mb]
Winds: from the SE (130 degrees) at 16 MPH (14 knots; 7.2 m/s)
Visibility: 6 miles (10 km)
Ceiling: 7000 feet AGL
Clouds: scattered clouds at 1000 feet AGL
broken clouds at 7000 feet AGL
overcast cloud deck at 30000 feet AGL
Weather: no significant weather observed at this time

METAR text: MMUN 231342Z 11012KT 5SM RA SCT015 BKN070 OVC300 24/24 A3001 RMK 60025 8/777 RA VC N/NW BONOVC
Conditions at: MMUN (CANCUN , MX) observed 1342 UTC 23 January 2019
Temperature: 24.0°C (75°F)
Dewpoint: 24.0°C (75°F) [RH = 100%]
Pressure (altimeter): 30.01 inches Hg (1016.3 mb)
Winds: from the ESE (110 degrees) at 14 MPH (12 knots; 6.2 m/s)
Visibility: 5 miles ( 8 km)
Ceiling: 7000 feet AGL
Clouds: scattered clouds at 1500 feet AGL
broken clouds at 7000 feet AGL
overcast cloud deck at 30000 feet AGL
Weather: RA  (moderate rain)

METAR text: MMUN 231240Z 14011KT 5SM -RA SCT015 BKN070 OVC300 23/23 A3000 RMK 60005 8/777 -RA INTMT
Conditions at: MMUN (CANCUN , MX) observed 1240 UTC 23 January 2019
Temperature: 23.0°C (73°F)
Dewpoint: 23.0°C (73°F) [RH = 100%]
Pressure (altimeter): 30.00 inches Hg (1016.0 mb)
Winds: from the SE (140 degrees) at 13 MPH (11 knots; 5.7 m/s)
Visibility: 5 miles ( 8 km)
Ceiling: 7000 feet AGL
Clouds: scattered clouds at 1500 feet AGL
broken clouds at 7000 feet AGL
overcast cloud deck at 30000 feet AGL
Weather: -RA  (light rain)

METAR text: MMUN 231218Z 13015KT 2SM RA BKN008 OVC070 24/24 A3000 RMK 8/77/ RA INTMT
Conditions at: MMUN (CANCUN , MX) observed 1218 UTC 23 January 2019
Temperature: 24.0°C (75°F)
Dewpoint: 24.0°C (75°F) [RH = 100%]
Pressure (altimeter): 30.00 inches Hg (1016.0 mb)
Winds: from the SE (130 degrees) at 17 MPH (15 knots; 7.7 m/s)
Visibility: 2.00 miles (3.22 km)
Ceiling: 800 feet AGL
Clouds: broken clouds at 800 feet AGL
overcast cloud deck at 7000 feet AGL
Weather: RA  (moderate rain)

METAR text: MMUN 231146Z 10013KT 7SM SCT015 BKN090 BKN250 26/22 A2998 RMK SLP156 58003 989 8/578
Conditions at: MMUN (CANCUN , MX) observed 1146 UTC 23 January 2019
Temperature: 26.0°C (79°F)
Dewpoint: 22.0°C (72°F) [RH = 79%]
Pressure (altimeter): 29.98 inches Hg (1015.3 mb)
[Sea-level pressure: 1015.6 mb]
Winds: from the E (100 degrees) at 15 MPH (13 knots; 6.7 m/s)
Visibility: 7 miles (11 km)
Ceiling: 9000 feet AGL
Clouds: scattered clouds at 1500 feet AGL
broken clouds at 9000 feet AGL
broken clouds at 25000 feet AGL
Weather: no significant weather observed at this time

METAR text: MMUN 231046Z 10013KT 7SM FEW015 SCT090 BKN250 26/21 A2998 RMK 8/578
Conditions at: MMUN (CANCUN , MX) observed 1046 UTC 23 January 2019
Temperature: 26.0°C (79°F)
Dewpoint: 21.0°C (70°F) [RH = 74%]
Pressure (altimeter): 29.98 inches Hg (1015.3 mb)
Winds: from the E (100 degrees) at 15 MPH (13 knots; 6.7 m/s)
Visibility: 7 miles (11 km)
Ceiling: 25000 feet AGL
Clouds: few clouds at 1500 feet AGL
scattered clouds at 9000 feet AGL
broken clouds at 25000 feet AGL
Weather: no significant weather observed at this time

METAR text: MMUN 230947Z 12014KT 7SM SCT250 25/21 A2999 RMK 8/008 SC AC
Conditions at: MMUN (CANCUN , MX) observed 0947 UTC 23 January 2019
Temperature: 25.0°C (77°F)
Dewpoint: 21.0°C (70°F) [RH = 79%]
Pressure (altimeter): 29.99 inches Hg (1015.7 mb)
Winds: from the ESE (120 degrees) at 16 MPH (14 knots; 7.2 m/s)
Visibility: 7 miles (11 km)
Ceiling: at least 12,000 feet AGL
Clouds: scattered clouds at 25000 feet AGL
Weather: no significant weather observed at this time

METAR text: MMUN 230848Z 12015KT 7SM BKN250 25/21 A3000 RMK SLP159 57011 990 8/008 SC AC
Conditions at: MMUN (CANCUN , MX) observed 0848 UTC 23 January 2019
Temperature: 25.0°C (77°F)
Dewpoint: 21.0°C (70°F) [RH = 79%]
Pressure (altimeter): 30.00 inches Hg (1016.0 mb)
[Sea-level pressure: 1015.9 mb]
Winds: from the ESE (120 degrees) at 17 MPH (15 knots; 7.7 m/s)
Visibility: 7 miles (11 km)
Ceiling: 25000 feet AGL
Clouds: broken clouds at 25000 feet AGL
Weather: no significant weather observed at this time

METAR text: MMUN 230744Z 11016KT 7SM FEW015 BKN250 25/20 A3001 RMK 8/508
Conditions at: MMUN (CANCUN , MX) observed 0744 UTC 23 January 2019
Temperature: 25.0°C (77°F)
Dewpoint: 20.0°C (68°F) [RH = 74%]
Pressure (altimeter): 30.01 inches Hg (1016.3 mb)
Winds: from the ESE (110 degrees) at 18 MPH (16 knots; 8.2 m/s)
Visibility: 7 miles (11 km)
Ceiling: 25000 feet AGL
Clouds: few clouds at 1500 feet AGL
broken clouds at 25000 feet AGL
Weather: no significant weather observed at this time

METAR text: MMUN 230645Z 11016KT 7SM FEW015 BKN250 25/20 A3003 RMK 8/508
Conditions at: MMUN (CANCUN , MX) observed 0645 UTC 23 January 2019
Temperature: 25.0°C (77°F)
Dewpoint: 20.0°C (68°F) [RH = 74%]
Pressure (altimeter): 30.03 inches Hg (1017.0 mb)
Winds: from the ESE (110 degrees) at 18 MPH (16 knots; 8.2 m/s)
Visibility: 7 miles (11 km)
Ceiling: 25000 feet AGL
Clouds: few clouds at 1500 feet AGL
broken clouds at 25000 feet AGL
Weather: no significant weather observed at this time

METAR text: MMUN 230546Z 12016KT 7SM SCT015 BKN250 25/20 A3004 RMK SLP170 56016 991 8/508
Conditions at: MMUN (CANCUN , MX) observed 0546 UTC 23 January 2019
Temperature: 25.0°C (77°F)
Dewpoint: 20.0°C (68°F) [RH = 74%]
Pressure (altimeter): 30.04 inches Hg (1017.4 mb)
[Sea-level pressure: 1017.0 mb]
Winds: from the ESE (120 degrees) at 18 MPH (16 knots; 8.2 m/s)
Visibility: 7 miles (11 km)
Ceiling: 25000 feet AGL
Clouds: scattered clouds at 1500 feet AGL
broken clouds at 25000 feet AGL
Weather: no significant weather observed at this time

METAR text: MMUN 230446Z 11017KT 7SM SCT015 BKN250 25/20 A3005 RMK 8/508
Conditions at: MMUN (CANCUN , MX) observed 0446 UTC 23 January 2019
Temperature: 25.0°C (77°F)
Dewpoint: 20.0°C (68°F) [RH = 74%]
Pressure (altimeter): 30.05 inches Hg (1017.7 mb)
Winds: from the ESE (110 degrees) at 20 MPH (17 knots; 8.7 m/s)
Visibility: 7 miles (11 km)
Ceiling: 25000 feet AGL
Clouds: scattered clouds at 1500 feet AGL
broken clouds at 25000 feet AGL
Weather: no significant weather observed at this time

METAR text: MMUN 230347Z 11018KT 7SM SCT015 BKN250 25/21 A3006 RMK 8/508
Conditions at: MMUN (CANCUN , MX) observed 0347 UTC 23 January 2019
Temperature: 25.0°C (77°F)
Dewpoint: 21.0°C (70°F) [RH = 79%]
Pressure (altimeter): 30.06 inches Hg (1018.0 mb)
Winds: from the ESE (110 degrees) at 21 MPH (18 knots; 9.3 m/s)
Visibility: 7 miles (11 km)
Ceiling: 25000 feet AGL
Clouds: scattered clouds at 1500 feet AGL
broken clouds at 25000 feet AGL
Weather: no significant weather observed at this time

METAR text: MMUN 230247Z 11017KT 7SM SCT015 BKN250 25/21 A3007 RMK SLP186 51010 983 8/508
Conditions at: MMUN (CANCUN , MX) observed 0247 UTC 23 January 2019
Temperature: 25.0°C (77°F)
Dewpoint: 21.0°C (70°F) [RH = 79%]
Pressure (altimeter): 30.07 inches Hg (1018.4 mb)
[Sea-level pressure: 1018.6 mb]
Winds: from the ESE (110 degrees) at 20 MPH (17 knots; 8.7 m/s)
Visibility: 7 miles (11 km)
Ceiling: 25000 feet AGL
Clouds: scattered clouds at 1500 feet AGL
broken clouds at 25000 feet AGL
Weather: no significant weather observed at this time

METAR text: MMUN 230140Z 10011KT 7SM SCT015 BKN250 25/21 A3007 RMK 8/508
Conditions at: MMUN (CANCUN , MX) observed 0140 UTC 23 January 2019
Temperature: 25.0°C (77°F)
Dewpoint: 21.0°C (70°F) [RH = 79%]
Pressure (altimeter): 30.07 inches Hg (1018.4 mb)
Winds: from the E (100 degrees) at 13 MPH (11 knots; 5.7 m/s)
Visibility: 7 miles (11 km)
Ceiling: 25000 feet AGL
Clouds: scattered clouds at 1500 feet AGL
broken clouds at 25000 feet AGL
Weather: no significant weather observed at this time

METAR text: MMUN 230051Z 11013KT 7SM SCT015 25/21 A3006 RMK 8/500 AC CI
Conditions at: MMUN (CANCUN , MX) observed 0051 UTC 23 January 2019
Temperature: 25.0°C (77°F)
Dewpoint: 21.0°C (70°F) [RH = 79%]
Pressure (altimeter): 30.06 inches Hg (1018.0 mb)
Winds: from the ESE (110 degrees) at 15 MPH (13 knots; 6.7 m/s)
Visibility: 7 miles (11 km)
Ceiling: at least 12,000 feet AGL
Clouds: scattered clouds at 1500 feet AGL
Weather: no significant weather observed at this time

METAR text: MMUN 222343Z 14013KT 7SM BKN015 25/21 A3005 RMK SLP176 52002 983 8/700 RA W CI
Conditions at: MMUN (CANCUN , MX) observed 2343 UTC 22 January 2019
Temperature: 25.0°C (77°F)
Dewpoint: 21.0°C (70°F) [RH = 79%]
Pressure (altimeter): 30.05 inches Hg (1017.7 mb)
[Sea-level pressure: 1017.6 mb]
Winds: from the SE (140 degrees) at 15 MPH (13 knots; 6.7 m/s)
Visibility: 7 miles (11 km)
Ceiling: 1500 feet AGL
Clouds: broken clouds at 1500 feet AGL
Weather: no significant weather observed at this time

METAR text: MMUN 222246Z 11008KT 7SM BKN015TCU 24/22 A3004 RMK 60025 8/200 CI RAE30
Conditions at: MMUN (CANCUN , MX) observed 2246 UTC 22 January 2019
Temperature: 24.0°C (75°F)
Dewpoint: 22.0°C (72°F) [RH = 89%]
Pressure (altimeter): 30.04 inches Hg (1017.4 mb)
Winds: from the ESE (110 degrees) at 9 MPH (8 knots; 4.1 m/s)
Visibility: 7 miles (11 km)
Ceiling: 1500 feet AGL
Clouds: broken clouds at 1500 feet AGL
Weather: no significant weather observed at this time

METAR text: MMUN 222142Z 10014KT 4SM RA BKN015 OVC070 25/22 A3006 RMK 8/77/ RAB38
Conditions at: MMUN (CANCUN , MX) observed 2142 UTC 22 January 2019
Temperature: 25.0°C (77°F)
Dewpoint: 22.0°C (72°F) [RH = 83%]
Pressure (altimeter): 30.06 inches Hg (1018.0 mb)
Winds: from the E (100 degrees) at 16 MPH (14 knots; 7.2 m/s)
Visibility: 4 miles ( 6 km)
Ceiling: 1500 feet AGL
Clouds: broken clouds at 1500 feet AGL
overcast cloud deck at 7000 feet AGL
Weather: RA  (moderate rain)

METAR text: MMUN 222044Z 09009KT 7SM BKN015TCU OVC070 25/21 A3006 RMK SLP178 57011 977 8/27/ BINOVC
Conditions at: MMUN (CANCUN , MX) observed 2044 UTC 22 January 2019
Temperature: 25.0°C (77°F)
Dewpoint: 21.0°C (70°F) [RH = 79%]
Pressure (altimeter): 30.06 inches Hg (1018.0 mb)
[Sea-level pressure: 1017.8 mb]
Winds: from the E (90 degrees) at 10 MPH (9 knots; 4.6 m/s)
Visibility: 7 miles (11 km)
Ceiling: 1500 feet AGL
Clouds: broken clouds at 1500 feet AGL
overcast cloud deck at 7000 feet AGL
Weather: no significant weather observed at this time

METAR text: MMUN 221941Z 09008KT 7SM BKN015TCU OVC070 25/21 A3007 RMK 8/27/ OCNL DROPS BINOVC
Conditions at: MMUN (CANCUN , MX) observed 1941 UTC 22 January 2019
Temperature: 25.0°C (77°F)
Dewpoint: 21.0°C (70°F) [RH = 79%]
Pressure (altimeter): 30.07 inches Hg (1018.4 mb)
Winds: from the E (90 degrees) at 9 MPH (8 knots; 4.1 m/s)
Visibility: 7 miles (11 km)
Ceiling: 1500 feet AGL
Clouds: broken clouds at 1500 feet AGL
overcast cloud deck at 7000 feet AGL
Weather: no significant weather observed at this time

METAR text: MMUN 221840Z 09009KT 7SM BKN018TCU OVC070 26/20 A3010 RMK 8/27/ HZY BINOVC
Conditions at: MMUN (CANCUN , MX) observed 1840 UTC 22 January 2019
Temperature: 26.0°C (79°F)
Dewpoint: 20.0°C (68°F) [RH = 70%]
Pressure (altimeter): 30.10 inches Hg (1019.4 mb)
Winds: from the E (90 degrees) at 10 MPH (9 knots; 4.6 m/s)
Visibility: 7 miles (11 km)
Ceiling: 1800 feet AGL
Clouds: broken clouds at 1800 feet AGL
overcast cloud deck at 7000 feet AGL
Weather: no significant weather observed at this time

METAR text: MMUN 221742Z 09012KT 7SM SCT015 BKN070 25/19 A3011 RMK SLP199 58009 973 8/170 SC CI
Conditions at: MMUN (CANCUN , MX) observed 1742 UTC 22 January 2019
Temperature: 25.0°C (77°F)
Dewpoint: 19.0°C (66°F) [RH = 69%]
Pressure (altimeter): 30.11 inches Hg (1019.7 mb)
[Sea-level pressure: 1019.9 mb]
Winds: from the E (90 degrees) at 14 MPH (12 knots; 6.2 m/s)
Visibility: 7 miles (11 km)
Ceiling: 7000 feet AGL
Clouds: scattered clouds at 1500 feet AGL
broken clouds at 7000 feet AGL
Weather: no significant weather observed at this time

METAR text: MMUN 221645Z 09008KT 7SM BKN020CB OVC065 25/19 A3014 RMK 8/36/ BINOVC
Conditions at: MMUN (CANCUN , MX) observed 1645 UTC 22 January 2019
Temperature: 25.0°C (77°F)
Dewpoint: 19.0°C (66°F) [RH = 69%]
Pressure (altimeter): 30.14 inches Hg (1020.7 mb)
Winds: from the E (90 degrees) at 9 MPH (8 knots; 4.1 m/s)
Visibility: 7 miles (11 km)
Ceiling: 2000 feet AGL
Clouds: broken clouds at 2000 feet AGL
overcast cloud deck at 6500 feet AGL
Weather: no significant weather observed at this time

METAR text: MMUN 221541Z 05005KT 7SM BKN020TCU OVC065 24/19 A3015 RMK 8/26/ OCNL DROPS
Conditions at: MMUN (CANCUN , MX) observed 1541 UTC 22 January 2019
Temperature: 24.0°C (75°F)
Dewpoint: 19.0°C (66°F) [RH = 74%]
Pressure (altimeter): 30.15 inches Hg (1021.1 mb)
Winds: from the NE (50 degrees) at 6 MPH (5 knots; 2.6 m/s)
Visibility: 7 miles (11 km)
Ceiling: 2000 feet AGL
Clouds: broken clouds at 2000 feet AGL
overcast cloud deck at 6500 feet AGL
Weather: no significant weather observed at this time

METAR text: MMUN 221446Z 08014KT 7SM BKN020 OVC065 23/18 A3014 RMK SLP208 53013 975 8/17/ HZY MDT CU SC BINOVC
Conditions at: MMUN (CANCUN , MX) observed 1446 UTC 22 January 2019
Temperature: 23.0°C (73°F)
Dewpoint: 18.0°C (64°F) [RH = 73%]
Pressure (altimeter): 30.14 inches Hg (1020.7 mb)
[Sea-level pressure: 1020.8 mb]
Winds: from the E (80 degrees) at 16 MPH (14 knots; 7.2 m/s)
Visibility: 7 miles (11 km)
Ceiling: 2000 feet AGL
Clouds: broken clouds at 2000 feet AGL
overcast cloud deck at 6500 feet AGL
Weather: no significant weather observed at this time

METAR text: MMUN 221344Z 07007KT 7SM BKN020TCU BKN300 23/18 A3013 RMK 8/208 HZY
Conditions at: MMUN (CANCUN , MX) observed 1344 UTC 22 January 2019
Temperature: 23.0°C (73°F)
Dewpoint: 18.0°C (64°F) [RH = 73%]
Pressure (altimeter): 30.13 inches Hg (1020.4 mb)
Winds: from the ENE (70 degrees) at 8 MPH (7 knots; 3.6 m/s)
Visibility: 7 miles (11 km)
Ceiling: 2000 feet AGL
Clouds: broken clouds at 2000 feet AGL
broken clouds at 30000 feet AGL
Weather: no significant weather observed at this time

METAR text: MMUN 221244Z 06006KT 7SM BKN020 BKN300 22/17 A3011 RMK 8/108 HZY MDT CU SC
Conditions at: MMUN (CANCUN , MX) observed 1244 UTC 22 January 2019
Temperature: 22.0°C (72°F)
Dewpoint: 17.0°C (63°F) [RH = 73%]
Pressure (altimeter): 30.11 inches Hg (1019.7 mb)
Winds: from the ENE (60 degrees) at 7 MPH (6 knots; 3.1 m/s)
Visibility: 7 miles (11 km)
Ceiling: 2000 feet AGL
Clouds: broken clouds at 2000 feet AGL
broken clouds at 30000 feet AGL
Weather: no significant weather observed at this time

METAR text: MMUN 221140Z 09005KT 7SM SCT020 SCT250 21/17 A3011 RMK SLP195 52008 977 8/508
Conditions at: MMUN (CANCUN , MX) observed 1140 UTC 22 January 2019
Temperature: 21.0°C (70°F)
Dewpoint: 17.0°C (63°F) [RH = 78%]
Pressure (altimeter): 30.11 inches Hg (1019.7 mb)
[Sea-level pressure: 1019.5 mb]
Winds: from the E (90 degrees) at 6 MPH (5 knots; 2.6 m/s)
Visibility: 7 miles (11 km)
Ceiling: at least 12,000 feet AGL
Clouds: scattered clouds at 2000 feet AGL
scattered clouds at 25000 feet AGL
Weather: no significant weather observed at this time

METAR text: MMUN 221043Z 09004KT 7SM SCT030 SCT250 21/14 A3011 RMK 8/508
Conditions at: MMUN (CANCUN , MX) observed 1043 UTC 22 January 2019
Temperature: 21.0°C (70°F)
Dewpoint: 14.0°C (57°F) [RH = 64%]
Pressure (altimeter): 30.11 inches Hg (1019.7 mb)
Winds: from the E (90 degrees) at 5 MPH (4 knots; 2.1 m/s)
Visibility: 7 miles (11 km)
Ceiling: at least 12,000 feet AGL
Clouds: scattered clouds at 3000 feet AGL
scattered clouds at 25000 feet AGL
Weather: no significant weather observed at this time

METAR text: MMUN 220943Z 10007KT 7SM BKN030 22/13 A3011 RMK 8/500
Conditions at: MMUN (CANCUN , MX) observed 0943 UTC 22 January 2019
Temperature: 22.0°C (72°F)
Dewpoint: 13.0°C (55°F) [RH = 57%]
Pressure (altimeter): 30.11 inches Hg (1019.7 mb)
Winds: from the E (100 degrees) at 8 MPH (7 knots; 3.6 m/s)
Visibility: 7 miles (11 km)
Ceiling: 3000 feet AGL
Clouds: broken clouds at 3000 feet AGL
Weather: no significant weather observed at this time

METAR text: MMUN 220842Z 11007KT 7SM BKN030 22/14 A3012 RMK SLP203 57012 963 8/500
Conditions at: MMUN (CANCUN , MX) observed 0842 UTC 22 January 2019
Temperature: 22.0°C (72°F)
Dewpoint: 14.0°C (57°F) [RH = 60%]
Pressure (altimeter): 30.12 inches Hg (1020.1 mb)
[Sea-level pressure: 1020.3 mb]
Winds: from the ESE (110 degrees) at 8 MPH (7 knots; 3.6 m/s)
Visibility: 7 miles (11 km)
Ceiling: 3000 feet AGL
Clouds: broken clouds at 3000 feet AGL
Weather: no significant weather observed at this time

METAR text: MMUN 220742Z 10008KT 7SM BKN030 22/14 A3014 RMK 8/500
Conditions at: MMUN (CANCUN , MX) observed 0742 UTC 22 January 2019
Temperature: 22.0°C (72°F)
Dewpoint: 14.0°C (57°F) [RH = 60%]
Pressure (altimeter): 30.14 inches Hg (1020.7 mb)
Winds: from the E (100 degrees) at 9 MPH (8 knots; 4.1 m/s)
Visibility: 7 miles (11 km)
Ceiling: 3000 feet AGL
Clouds: broken clouds at 3000 feet AGL
Weather: no significant weather observed at this time

METAR text: MMUN 220640Z 09007KT 7SM BKN030 22/15 A3015 RMK 8/500
Conditions at: MMUN (CANCUN , MX) observed 0640 UTC 22 January 2019
Temperature: 22.0°C (72°F)
Dewpoint: 15.0°C (59°F) [RH = 65%]
Pressure (altimeter): 30.15 inches Hg (1021.1 mb)
Winds: from the E (90 degrees) at 8 MPH (7 knots; 3.6 m/s)
Visibility: 7 miles (11 km)
Ceiling: 3000 feet AGL
Clouds: broken clouds at 3000 feet AGL
Weather: no significant weather observed at this time

METAR text: MMUN 220542Z 02002KT 7SM BKN030 21/13 A3016 RMK SLP215 58004 958 8/500
Conditions at: MMUN (CANCUN , MX) observed 0542 UTC 22 January 2019
Temperature: 21.0°C (70°F)
Dewpoint: 13.0°C (55°F) [RH = 60%]
Pressure (altimeter): 30.16 inches Hg (1021.4 mb)
[Sea-level pressure: 1021.5 mb]
Winds: from the NNE (20 degrees) at 2 MPH (2 knots; 1.0 m/s)
Visibility: 7 miles (11 km)
Ceiling: 3000 feet AGL
Clouds: broken clouds at 3000 feet AGL
Weather: no significant weather observed at this time

METAR text: MMUN 220444Z 05006KT 7SM BKN030 22/13 A3017 RMK 8/500
Conditions at: MMUN (CANCUN , MX) observed 0444 UTC 22 January 2019
Temperature: 22.0°C (72°F)
Dewpoint: 13.0°C (55°F) [RH = 57%]
Pressure (altimeter): 30.17 inches Hg (1021.8 mb)
Winds: from the NE (50 degrees) at 7 MPH (6 knots; 3.1 m/s)
Visibility: 7 miles (11 km)
Ceiling: 3000 feet AGL
Clouds: broken clouds at 3000 feet AGL
Weather: no significant weather observed at this time

Forecast for: AMD
Text: TAF AMD MMUN 231310Z 2313/2418 14012KT 5SM -RA SCT015 BKN070 OVC300 TX26/2319Z TN23/2313Z
Forecast period: 1300 to 1600 UTC 23 January 2019
Forecast type: FROM: standard forecast or significant change
Winds: from the SE (140 degrees) at 14 MPH (12 knots; 6.2 m/s)
Visibility: 5 miles (8 km)
Ceiling: 7000 feet AGL
Clouds: scattered clouds at 1500 feet AGL
broken clouds at 7000 feet AGL
overcast cloud deck at 30000 feet AGL
Weather: -RA  (light rain)
Text: TEMPO 2313/2316 2SM RA
Forecast period: 1300 to 1600 UTC 23 January 2019
Forecast type: TEMPORARY: The following changes expected for less than half the time period
Visibility: 2.00 miles (3.22 km)
Ceiling: unknown
Clouds: missing
Weather: RA  (moderate rain)
Text: FM231600 13012KT P6SM SCT015
Forecast period: 1600 to 2000 UTC 23 January 2019
Forecast type: FROM: standard forecast or significant change
Winds: from the SE (130 degrees) at 14 MPH (12 knots; 6.2 m/s)
Visibility: 6 or more miles 10+ km)
Ceiling: at least 12,000 feet AGL
Clouds: scattered clouds at 1500 feet AGL
Weather: no significant weather forecast for this period
Text: TEMPO 2316/2320 5SM RA
Forecast period: 1600 to 2000 UTC 23 January 2019
Forecast type: TEMPORARY: The following changes expected for less than half the time period
Visibility: 5 miles (8 km)
Ceiling: unknown
Clouds: missing
Weather: RA  (moderate rain)
Text: FM232000 13010KT P6SM BKN015
Forecast period: 2000 UTC 23 January 2019 to 0400 UTC 24 January 2019
Forecast type: FROM: standard forecast or significant change
Winds: from the SE (130 degrees) at 12 MPH (10 knots; 5.1 m/s)
Visibility: 6 or more miles 10+ km)
Ceiling: 1500 feet AGL
Clouds: broken clouds at 1500 feet AGL
Weather: no significant weather forecast for this period
Text: TEMPO 2400/2404 4SM RA
Forecast period: 0000 to 0400 UTC 24 January 2019
Forecast type: TEMPORARY: The following changes expected for less than half the time period
Visibility: 4 miles (6 km)
Ceiling: unknown
Clouds: missing
Weather: RA  (moderate rain)
Text: FM240400 12008KT P6SM SCT015
Forecast period: 0400 to 1400 UTC 24 January 2019
Forecast type: FROM: standard forecast or significant change
Winds: from the ESE (120 degrees) at 9 MPH (8 knots; 4.1 m/s)
Visibility: 6 or more miles 10+ km)
Ceiling: at least 12,000 feet AGL
Clouds: scattered clouds at 1500 feet AGL
Weather: no significant weather forecast for this period
Text: FM241400 33015KT 5SM RA BKN015CB OVC080
Forecast period: 1400 to 1800 UTC 24 January 2019
Forecast type: FROM: standard forecast or significant change
Winds: from the NNW (330 degrees) at 17 MPH (15 knots; 7.7 m/s)
Visibility: 5 miles (8 km)
Ceiling: 1500 feet AGL
Clouds: broken clouds at 1500 feet AGL
overcast cloud deck at 8000 feet AGL
Weather: RA  (moderate rain)
Text: TEMPO 2414/2418 2SM TSRA
Forecast period: 1400 to 1800 UTC 24 January 2019
Forecast type: TEMPORARY: The following changes expected for less than half the time period
Visibility: 2.00 miles (3.22 km)
Ceiling: unknown
Clouds: missing
Weather: TSRA  (rain associated with thunderstorm(s))